createdAt,value
2023-02-22T00:01:50.124Z,100920.20
2023-02-22T00:04:20.532Z,100925.60
2023-02-22T00:06:49.191Z,100925.60
2023-02-22T00:09:20.041Z,100921.20
2023-02-22T00:11:48.424Z,100927.20
2023-02-22T00:14:19.670Z,100925.80
2023-02-22T00:16:46.161Z,100925.20
2023-02-22T00:19:12.687Z,100925.40
2023-02-22T00:21:39.136Z,100924.00
2023-02-22T00:24:22.295Z,100923.40
2023-02-22T00:26:55.108Z,100922.40
2023-02-22T00:29:23.038Z,100926.60
2023-02-22T00:31:49.696Z,100927.80
2023-02-22T00:34:16.886Z,100929.00
2023-02-22T00:36:48.270Z,100931.00
2023-02-22T00:39:15.420Z,100932.20
2023-02-22T00:41:42.219Z,100928.00
2023-02-22T00:44:08.803Z,100929.60
2023-02-22T00:46:35.259Z,100933.40
2023-02-22T00:49:01.776Z,100936.40
2023-02-22T00:51:28.237Z,100941.00
2023-02-22T00:53:54.671Z,100941.40
2023-02-22T00:56:21.262Z,100942.00
2023-02-22T00:58:47.664Z,100936.20
2023-02-22T01:01:14.330Z,100938.40
2023-02-22T01:03:41.134Z,100938.80
2023-02-22T01:06:07.625Z,100936.60
2023-02-22T01:08:34.088Z,100944.80
2023-02-22T01:11:00.551Z,100943.20
2023-02-22T01:13:26.970Z,100953.80
2023-02-22T01:15:56.050Z,100951.60
2023-02-22T01:18:22.855Z,100947.20
2023-02-22T01:20:49.349Z,100949.00
2023-02-22T01:23:16.692Z,100949.40
2023-02-22T01:25:43.274Z,100960.60
2023-02-22T01:28:10.263Z,100966.40
2023-02-22T01:30:37.116Z,100967.40
2023-02-22T01:33:07.099Z,100964.00
2023-02-22T01:35:36.849Z,100970.20
2023-02-22T01:38:04.041Z,100975.20
2023-02-22T01:40:35.039Z,100978.60
2023-02-22T01:43:18.393Z,100984.60
2023-02-22T01:45:53.602Z,100981.00
2023-02-22T01:48:30.580Z,100984.00
2023-02-22T01:51:17.084Z,100990.40
2023-02-22T01:53:58.821Z,100990.60
2023-02-22T01:56:28.954Z,100994.60
2023-02-22T01:59:05.627Z,100992.80
2023-02-22T02:01:34.533Z,100990.20
2023-02-22T02:04:07.135Z,100990.40
2023-02-22T02:06:35.855Z,100987.40
2023-02-22T02:09:13.598Z,100987.60
2023-02-22T02:11:42.007Z,100987.40
2023-02-22T02:14:10.658Z,100987.00
2023-02-22T02:16:48.961Z,100987.20
2023-02-22T02:19:39.667Z,100989.20
2023-02-22T02:22:42.144Z,100983.20
2023-02-22T02:25:28.843Z,100985.60
2023-02-22T02:28:29.386Z,100983.80
2023-02-22T02:31:39.790Z,100987.40
2023-02-22T02:34:21.289Z,100986.60
2023-02-22T02:37:21.510Z,100987.40
2023-02-22T02:40:20.659Z,100983.60
2023-02-22T02:43:22.136Z,100982.60
2023-02-22T02:46:00.992Z,100985.80
2023-02-22T02:48:32.070Z,100986.20
2023-02-22T02:51:01.761Z,100983.60
2023-02-22T02:53:36.895Z,100988.40
2023-02-22T02:56:03.740Z,100983.20
2023-02-22T02:58:30.739Z,100983.80
2023-02-22T03:01:03.767Z,100980.00
2023-02-22T03:03:54.698Z,100982.40
2023-02-22T03:06:45.488Z,100987.80
2023-02-22T03:09:38.493Z,100988.00
2023-02-22T03:12:21.756Z,100990.40
2023-02-22T03:15:01.177Z,100993.20
2023-02-22T03:18:17.182Z,100994.80
2023-02-22T03:21:20.292Z,100996.80
2023-02-22T03:24:21.037Z,101003.40
2023-02-22T03:27:11.233Z,101007.40
2023-02-22T03:29:44.559Z,101010.20
2023-02-22T03:32:22.106Z,101012.40
2023-02-22T03:35:00.351Z,101016.20
2023-02-22T03:37:38.215Z,101019.00
2023-02-22T03:40:14.486Z,101023.40
2023-02-22T03:42:53.485Z,101018.40
2023-02-22T03:45:24.396Z,101025.00
2023-02-22T03:48:03.648Z,101021.60
2023-02-22T03:50:36.183Z,101025.80
2023-02-22T03:53:04.398Z,101033.60
2023-02-22T03:55:30.933Z,101032.80
2023-02-22T03:58:01.014Z,101037.40
2023-02-22T04:00:31.683Z,101036.20
2023-02-22T04:02:59.039Z,101035.40
2023-02-22T04:05:25.845Z,101039.40
2023-02-22T04:07:54.880Z,101039.40
2023-02-22T04:10:23.102Z,101040.60
2023-02-22T04:12:50.453Z,101045.00
2023-02-22T04:15:22.349Z,101048.20
2023-02-22T04:17:48.854Z,101056.00
2023-02-22T04:20:19.227Z,101058.60
2023-02-22T04:22:46.797Z,101055.60
2023-02-22T04:25:14.260Z,101058.40
2023-02-22T04:27:41.177Z,101062.00
2023-02-22T04:30:08.945Z,101063.40
2023-02-22T04:32:35.842Z,101060.00
2023-02-22T04:35:04.434Z,101062.20
2023-02-22T04:37:34.055Z,101060.20
2023-02-22T04:40:03.136Z,101066.80
2023-02-22T04:42:29.615Z,101064.40
2023-02-22T04:44:56.063Z,101068.20
2023-02-22T04:47:22.643Z,101069.20
2023-02-22T04:49:49.069Z,101067.80
2023-02-22T04:52:15.523Z,101064.00
2023-02-22T04:54:42.065Z,101076.00
2023-02-22T04:57:08.567Z,101071.60
2023-02-22T04:59:35.005Z,101070.20
2023-02-22T05:02:01.965Z,101066.40
2023-02-22T05:04:28.459Z,101073.20
2023-02-22T05:06:55.170Z,101078.00
2023-02-22T05:09:21.876Z,101079.80
2023-02-22T05:11:48.920Z,101073.60
2023-02-22T05:14:15.471Z,101073.20
2023-02-22T05:16:41.927Z,101072.40
2023-02-22T05:19:11.123Z,101076.20
2023-02-22T05:21:37.568Z,101076.80
2023-02-22T05:24:04.358Z,101073.80
2023-02-22T05:26:30.808Z,101075.80
2023-02-22T05:28:57.264Z,101078.20
2023-02-22T05:31:23.916Z,101081.80
2023-02-22T05:33:50.411Z,101079.20
2023-02-22T05:36:16.900Z,101079.20
2023-02-22T05:38:44.262Z,101081.60
2023-02-22T05:41:12.402Z,101086.60
2023-02-22T05:43:40.224Z,101088.40
2023-02-22T05:46:07.866Z,101090.60
2023-02-22T05:48:34.403Z,101090.80
2023-02-22T05:51:00.857Z,101085.80
2023-02-22T05:53:27.425Z,101093.60
2023-02-22T05:55:54.117Z,101093.20
2023-02-22T05:58:20.861Z,101101.60
2023-02-22T06:00:47.432Z,101101.40
2023-02-22T06:03:14.733Z,101102.20
2023-02-22T06:05:41.206Z,101106.60
2023-02-22T06:08:08.345Z,101109.60
2023-02-22T06:10:35.387Z,101114.00
2023-02-22T06:13:04.031Z,101112.20
2023-02-22T06:15:30.679Z,101116.20
2023-02-22T06:17:58.498Z,101119.40
2023-02-22T06:20:27.630Z,101122.80
2023-02-22T06:22:57.039Z,101128.20
2023-02-22T06:25:27.939Z,101139.60
2023-02-22T06:27:54.363Z,101136.20
2023-02-22T06:30:24.502Z,101140.80
2023-02-22T06:32:51.163Z,101146.60
2023-02-22T06:35:18.445Z,101150.40
2023-02-22T06:37:45.166Z,101156.20
2023-02-22T06:40:12.974Z,101156.80
2023-02-22T06:42:40.298Z,101159.20
2023-02-22T06:45:08.047Z,101160.40
2023-02-22T06:47:40.459Z,101163.40
2023-02-22T06:50:19.719Z,101160.00
2023-02-22T06:52:47.465Z,101165.00
2023-02-22T06:55:31.841Z,101166.00
2023-02-22T06:58:00.259Z,101173.40
2023-02-22T07:00:29.337Z,101168.80
2023-02-22T07:02:59.114Z,101176.40
2023-02-22T07:05:28.294Z,101181.40
2023-02-22T07:08:03.327Z,101182.00
2023-02-22T07:10:32.845Z,101188.40
2023-02-22T07:13:00.964Z,101186.60
2023-02-22T07:15:32.468Z,101192.20
2023-02-22T07:17:59.900Z,101191.40
2023-02-22T07:20:30.089Z,101194.40
2023-02-22T07:22:56.778Z,101193.20
2023-02-22T07:25:24.252Z,101196.60
2023-02-22T07:27:52.487Z,101192.00
2023-02-22T07:30:30.060Z,101190.40
2023-02-22T07:33:01.156Z,101191.80
2023-02-22T07:35:36.158Z,101191.60
2023-02-22T07:38:10.037Z,101199.20
2023-02-22T07:40:38.420Z,101197.00
2023-02-22T07:43:15.713Z,101201.20
2023-02-22T07:45:43.353Z,101200.00
2023-02-22T07:48:12.010Z,101201.80
2023-02-22T07:50:39.966Z,101203.40
2023-02-22T07:53:13.680Z,101203.80
2023-02-22T07:55:40.520Z,101211.20
2023-02-22T07:58:12.261Z,101214.60
2023-02-22T08:00:40.572Z,101211.00
2023-02-22T08:03:11.781Z,101214.00
2023-02-22T08:05:42.106Z,101215.80
2023-02-22T08:08:08.854Z,101218.80
2023-02-22T08:10:36.594Z,101217.60
2023-02-22T08:13:05.150Z,101216.20
2023-02-22T08:15:36.202Z,101215.00
2023-02-22T08:18:10.756Z,101211.20
2023-02-22T08:20:40.395Z,101211.00
2023-02-22T08:23:08.962Z,101212.60
2023-02-22T08:25:35.690Z,101216.20
2023-02-22T08:28:19.486Z,101212.20
2023-02-22T08:30:45.999Z,101213.80
2023-02-22T08:33:18.851Z,101213.60
2023-02-22T08:35:49.009Z,101213.00
2023-02-22T08:38:28.921Z,101213.80
2023-02-22T08:40:55.942Z,101209.80
2023-02-22T08:43:23.126Z,101213.80
2023-02-22T08:45:50.959Z,101208.40
2023-02-22T08:48:18.366Z,101208.80
2023-02-22T08:50:46.206Z,101206.40
2023-02-22T08:53:15.605Z,101206.80
2023-02-22T08:55:42.727Z,101208.80
2023-02-22T08:58:11.479Z,101210.00
2023-02-22T09:00:39.821Z,101209.20
2023-02-22T09:03:12.639Z,101209.00
2023-02-22T09:05:40.992Z,101207.00
2023-02-22T09:08:07.601Z,101210.20
2023-02-22T09:10:35.087Z,101214.80
2023-02-22T09:13:03.452Z,101212.00
2023-02-22T09:15:31.186Z,101217.60
2023-02-22T09:17:58.888Z,101214.80
2023-02-22T09:20:26.495Z,101217.20
2023-02-22T09:22:54.547Z,101216.20
2023-02-22T09:25:22.540Z,101211.20
2023-02-22T09:27:52.089Z,101215.00
2023-02-22T09:30:27.324Z,101217.40
2023-02-22T09:32:58.886Z,101215.60
2023-02-22T09:35:26.584Z,101214.80
2023-02-22T09:37:55.941Z,101216.80
2023-02-22T09:40:29.077Z,101216.20
2023-02-22T09:43:19.986Z,101216.00
2023-02-22T09:46:23.768Z,101220.80
2023-02-22T09:49:05.770Z,101218.20
2023-02-22T09:51:52.119Z,101222.60
2023-02-22T09:54:36.857Z,101217.00
2023-02-22T09:57:11.434Z,101222.60
2023-02-22T10:00:12.441Z,101229.00
2023-02-22T10:03:21.369Z,101223.00
2023-02-22T10:06:10.246Z,101221.60
2023-02-22T10:08:38.413Z,101222.20
2023-02-22T10:11:26.902Z,101225.00
2023-02-22T10:14:35.245Z,101231.80
2023-02-22T10:17:36.623Z,101236.00
2023-02-22T10:20:57.926Z,101233.60
2023-02-22T10:23:52.939Z,101235.80
2023-02-22T10:26:34.020Z,101235.00
2023-02-22T10:29:15.305Z,101235.40
2023-02-22T10:31:47.925Z,101238.40
2023-02-22T10:34:24.233Z,101242.60
2023-02-22T10:37:16.671Z,101245.60
2023-02-22T10:39:46.190Z,101249.80
2023-02-22T10:42:12.809Z,101252.00
2023-02-22T10:44:41.122Z,101247.00
2023-02-22T10:47:15.999Z,101246.40
2023-02-22T10:49:50.350Z,101242.00
2023-02-22T10:52:26.474Z,101237.20
2023-02-22T10:55:13.656Z,101245.00
2023-02-22T10:57:45.882Z,101247.40
2023-02-22T11:00:29.428Z,101247.60
2023-02-22T11:03:00.669Z,101242.60
2023-02-22T11:05:37.052Z,101247.60
2023-02-22T11:08:28.541Z,101246.00
2023-02-22T11:11:00.133Z,101241.80
2023-02-22T11:13:37.805Z,101248.60
2023-02-22T11:16:35.659Z,101251.60
2023-02-22T11:19:23.489Z,101260.00
2023-02-22T11:21:54.854Z,101256.60
2023-02-22T11:24:27.403Z,101260.60
2023-02-22T11:27:07.292Z,101263.80
2023-02-22T11:29:37.023Z,101264.00
2023-02-22T11:32:21.714Z,101271.80
2023-02-22T11:35:00.246Z,101271.40
2023-02-22T11:37:36.219Z,101269.00
2023-02-22T11:40:22.566Z,101270.40
2023-02-22T11:43:11.641Z,101270.60
2023-02-22T11:45:44.266Z,101267.40
2023-02-22T11:48:22.658Z,101268.20
2023-02-22T11:51:04.906Z,101268.40
2023-02-22T11:54:24.955Z,101273.60
2023-02-22T11:57:03.961Z,101274.40
2023-02-22T12:00:01.116Z,101274.20
2023-02-22T12:03:05.272Z,101275.20
2023-02-22T12:05:59.136Z,101273.80
2023-02-22T12:08:35.270Z,101273.40
2023-02-22T12:11:17.714Z,101275.80
2023-02-22T12:14:08.630Z,101271.00
2023-02-22T12:17:30.362Z,101270.80
2023-02-22T12:20:12.781Z,101267.60
2023-02-22T12:23:02.250Z,101261.00
2023-02-22T12:25:36.110Z,101262.20
2023-02-22T12:28:42.950Z,101262.40
2023-02-22T12:31:38.142Z,101264.20
2023-02-22T12:34:43.522Z,101257.80
2023-02-22T12:37:28.696Z,101258.60
2023-02-22T12:40:14.055Z,101256.00
2023-02-22T12:42:57.598Z,101259.80
2023-02-22T12:45:35.417Z,101261.40
2023-02-22T12:48:23.207Z,101256.60
2023-02-22T12:50:58.625Z,101253.80
2023-02-22T12:53:33.996Z,101262.40
2023-02-22T12:56:27.683Z,101270.20
2023-02-22T12:59:10.593Z,101268.60
2023-02-22T13:01:42.754Z,101269.00
2023-02-22T13:04:20.165Z,101270.00
2023-02-22T13:06:56.789Z,101271.40
2023-02-22T13:10:19.804Z,101276.00
2023-02-22T13:13:24.125Z,101269.40
2023-02-22T13:16:07.715Z,101271.80
2023-02-22T13:19:15.942Z,101268.60
2023-02-22T13:22:06.168Z,101267.80
2023-02-22T13:24:52.359Z,101275.80
2023-02-22T13:27:27.608Z,101275.20
2023-02-22T13:29:59.208Z,101279.20
2023-02-22T13:33:04.476Z,101277.40
2023-02-22T13:36:12.820Z,101281.40
2023-02-22T13:38:56.419Z,101282.80
2023-02-22T13:41:48.009Z,101280.00
2023-02-22T13:44:43.444Z,101288.00
2023-02-22T13:47:41.037Z,101285.60
2023-02-22T13:50:58.689Z,101281.00
2023-02-22T13:53:37.079Z,101283.20
2023-02-22T13:56:04.356Z,101284.20
2023-02-22T13:58:31.196Z,101285.20
2023-02-22T14:01:00.122Z,101285.40
2023-02-22T14:03:35.464Z,101284.20
2023-02-22T14:06:08.756Z,101290.20
2023-02-22T14:08:35.421Z,101286.40
2023-02-22T14:11:32.518Z,101287.00
2023-02-22T14:14:00.438Z,101288.40
2023-02-22T14:16:30.076Z,101283.00
2023-02-22T14:19:26.140Z,101282.80
2023-02-22T14:22:02.542Z,101288.00
2023-02-22T14:24:42.232Z,101296.00
2023-02-22T14:27:10.915Z,101295.60
2023-02-22T14:29:48.165Z,101286.20
2023-02-22T14:32:16.957Z,101284.40
2023-02-22T14:34:53.372Z,101285.60
2023-02-22T14:37:29.970Z,101284.40
2023-02-22T14:40:20.076Z,101288.00
2023-02-22T14:43:02.754Z,101287.60
2023-02-22T14:45:35.420Z,101288.40
2023-02-22T14:48:38.612Z,101290.20
2023-02-22T14:51:22.372Z,101291.40
2023-02-22T14:54:05.810Z,101285.60
2023-02-22T14:56:43.608Z,101288.00
2023-02-22T14:59:19.532Z,101291.80
2023-02-22T15:02:01.712Z,101292.80
2023-02-22T15:04:32.925Z,101297.00
2023-02-22T15:07:09.050Z,101297.80
2023-02-22T15:09:36.957Z,101294.00
2023-02-22T15:12:03.419Z,101288.20
2023-02-22T15:14:38.329Z,101285.20
2023-02-22T15:17:18.139Z,101286.20
2023-02-22T15:19:50.710Z,101293.80
2023-02-22T15:22:25.689Z,101298.40
2023-02-22T15:25:11.646Z,101293.00
2023-02-22T15:27:45.305Z,101296.20
2023-02-22T15:30:27.367Z,101296.00
2023-02-22T15:33:04.071Z,101295.20
2023-02-22T15:35:32.921Z,101299.60
2023-02-22T15:38:21.074Z,101297.40
2023-02-22T15:41:02.072Z,101296.20
2023-02-22T15:43:31.441Z,101299.20
2023-02-22T15:45:59.908Z,101300.00
2023-02-22T15:48:30.997Z,101300.40
2023-02-22T15:51:13.287Z,101302.00
2023-02-22T15:53:46.492Z,101304.80
2023-02-22T15:56:29.498Z,101321.20
2023-02-22T15:59:17.861Z,101314.60
2023-02-22T16:01:49.056Z,101324.20
2023-02-22T16:04:19.603Z,101324.80
2023-02-22T16:06:48.764Z,101327.80
2023-02-22T16:09:28.996Z,101323.40
2023-02-22T16:12:27.876Z,101323.80
2023-02-22T16:14:55.989Z,101326.60
2023-02-22T16:17:49.525Z,101328.40
2023-02-22T16:20:22.354Z,101328.20
2023-02-22T16:22:50.318Z,101335.60
2023-02-22T16:25:20.914Z,101337.00
2023-02-22T16:27:50.203Z,101343.20
2023-02-22T16:30:26.199Z,101343.20
2023-02-22T16:32:56.147Z,101350.60
2023-02-22T16:35:28.028Z,101352.80
2023-02-22T16:38:02.394Z,101353.60
2023-02-22T16:40:46.656Z,101354.20
2023-02-22T16:43:18.210Z,101353.00
2023-02-22T16:45:45.759Z,101356.60
2023-02-22T16:48:23.691Z,101363.40
2023-02-22T16:50:54.540Z,101360.20
2023-02-22T16:53:26.211Z,101360.80
2023-02-22T16:56:00.098Z,101358.20
2023-02-22T16:58:28.323Z,101372.40
2023-02-22T17:00:56.805Z,101373.20
2023-02-22T17:03:25.586Z,101371.60
2023-02-22T17:05:53.068Z,101375.20
2023-02-22T17:08:22.288Z,101372.40
2023-02-22T17:10:52.239Z,101373.20
2023-02-22T17:13:26.648Z,101376.20
2023-02-22T17:15:59.724Z,101374.00
2023-02-22T17:18:33.457Z,101366.40
2023-02-22T17:21:02.724Z,101370.40
2023-02-22T17:23:29.497Z,101364.40
2023-02-22T17:26:02.920Z,101369.00
2023-02-22T17:28:30.845Z,101371.40
2023-02-22T17:31:00.711Z,101368.60
2023-02-22T17:33:37.446Z,101369.00
2023-02-22T17:36:05.163Z,101367.60
2023-02-22T17:38:31.813Z,101367.40
2023-02-22T17:41:00.714Z,101372.60
2023-02-22T17:43:28.344Z,101371.20
2023-02-22T17:45:56.152Z,101377.20
2023-02-22T17:48:24.217Z,101374.20
2023-02-22T17:50:52.679Z,101373.80
2023-02-22T17:53:22.049Z,101368.80
2023-02-22T17:55:49.742Z,101367.80
2023-02-22T17:58:17.350Z,101372.00
2023-02-22T18:00:50.075Z,101369.80
2023-02-22T18:03:24.431Z,101374.20
2023-02-22T18:05:57.057Z,101365.20
2023-02-22T18:08:26.665Z,101364.20
2023-02-22T18:10:55.953Z,101364.20
2023-02-22T18:13:26.397Z,101359.00
2023-02-22T18:15:59.394Z,101350.60
2023-02-22T18:18:26.183Z,101356.20
2023-02-22T18:20:58.705Z,101361.20
2023-02-22T18:23:28.596Z,101363.40
2023-02-22T18:26:09.598Z,101362.60
2023-02-22T18:28:40.472Z,101367.60
2023-02-22T18:31:15.027Z,101364.80
2023-02-22T18:33:52.523Z,101363.40
2023-02-22T18:36:22.115Z,101363.20
2023-02-22T18:38:52.398Z,101361.60
2023-02-22T18:41:26.601Z,101363.80
2023-02-22T18:43:59.878Z,101356.20
2023-02-22T18:46:30.048Z,101355.80
2023-02-22T18:49:00.457Z,101359.00
2023-02-22T18:51:28.284Z,101354.00
2023-02-22T18:54:01.739Z,101357.20
2023-02-22T18:56:29.962Z,101352.20
2023-02-22T18:59:11.530Z,101350.20
2023-02-22T19:01:40.285Z,101344.20
2023-02-22T19:04:12.044Z,101345.20
2023-02-22T19:06:39.727Z,101343.80
2023-02-22T19:09:08.165Z,101340.80
2023-02-22T19:11:37.414Z,101342.00
2023-02-22T19:14:04.990Z,101344.60
2023-02-22T19:16:32.359Z,101341.20
2023-02-22T19:18:59.338Z,101341.80
2023-02-22T19:21:30.872Z,101344.20
2023-02-22T19:24:00.573Z,101338.60
2023-02-22T19:26:28.838Z,101344.40
2023-02-22T19:28:58.991Z,101341.60
2023-02-22T19:31:34.198Z,101337.00
2023-02-22T19:34:10.997Z,101333.80
2023-02-22T19:36:45.424Z,101339.60
2023-02-22T19:39:15.078Z,101341.20
2023-02-22T19:41:42.200Z,101338.60
2023-02-22T19:44:09.022Z,101332.60
2023-02-22T19:46:40.076Z,101334.00
2023-02-22T19:49:07.328Z,101329.00
2023-02-22T19:51:38.150Z,101331.00
2023-02-22T19:54:08.237Z,101332.00
2023-02-22T19:56:34.805Z,101336.00
2023-02-22T19:59:16.435Z,101326.60
2023-02-22T20:01:46.288Z,101329.00
2023-02-22T20:04:20.754Z,101329.40
2023-02-22T20:06:53.695Z,101331.60
2023-02-22T20:09:29.544Z,101331.40
2023-02-22T20:11:56.161Z,101329.60
2023-02-22T20:14:27.802Z,101327.00
2023-02-22T20:16:56.085Z,101327.80
2023-02-22T20:19:23.876Z,101330.60
2023-02-22T20:21:51.726Z,101332.00
2023-02-22T20:24:18.826Z,101332.60
2023-02-22T20:26:46.691Z,101335.80
2023-02-22T20:29:15.201Z,101331.60
2023-02-22T20:31:54.631Z,101332.80
2023-02-22T20:34:38.353Z,101333.00
2023-02-22T20:37:06.840Z,101333.20
2023-02-22T20:39:33.360Z,101338.00
2023-02-22T20:42:00.090Z,101335.20
2023-02-22T20:44:26.799Z,101329.40
2023-02-22T20:46:53.843Z,101325.40
2023-02-22T20:49:20.772Z,101327.20
2023-02-22T20:51:48.833Z,101327.20
2023-02-22T20:54:17.189Z,101333.20
2023-02-22T20:57:02.571Z,101329.20
2023-02-22T20:59:29.925Z,101323.00
2023-02-22T21:01:56.777Z,101329.40
2023-02-22T21:04:23.536Z,101321.60
2023-02-22T21:06:51.341Z,101322.20
2023-02-22T21:09:23.209Z,101325.60
2023-02-22T21:11:49.959Z,101320.80
2023-02-22T21:14:20.332Z,101323.60
2023-02-22T21:16:50.891Z,101324.60
2023-02-22T21:19:24.697Z,101330.60
2023-02-22T21:21:55.050Z,101330.40
2023-02-22T21:24:25.001Z,101331.20
2023-02-22T21:26:53.205Z,101328.40
2023-02-22T21:29:22.241Z,101331.20
2023-02-22T21:31:52.020Z,101335.60
2023-02-22T21:34:19.586Z,101329.80
2023-02-22T21:36:49.953Z,101330.20
2023-02-22T21:39:19.294Z,101332.20
2023-02-22T21:41:51.183Z,101328.20
2023-02-22T21:44:18.859Z,101328.20
2023-02-22T21:46:49.352Z,101330.20
2023-02-22T21:49:17.200Z,101329.40
2023-02-22T21:51:44.316Z,101326.60
2023-02-22T21:54:12.290Z,101325.40
2023-02-22T21:56:41.905Z,101328.40
2023-02-22T21:59:18.416Z,101325.80
2023-02-22T22:01:54.728Z,101326.20
2023-02-22T22:04:30.953Z,101321.20
2023-02-22T22:07:00.711Z,101327.40
2023-02-22T22:09:32.128Z,101327.80
2023-02-22T22:12:04.331Z,101324.80
2023-02-22T22:14:33.829Z,101328.80
2023-02-22T22:17:02.776Z,101319.80
2023-02-22T22:19:33.743Z,101321.60
2023-02-22T22:22:01.080Z,101328.60
2023-02-22T22:24:31.497Z,101325.80
2023-02-22T22:27:02.981Z,101331.40
2023-02-22T22:29:30.444Z,101338.00
2023-02-22T22:31:57.041Z,101344.40
2023-02-22T22:34:23.930Z,101340.40
2023-02-22T22:36:50.590Z,101340.60
2023-02-22T22:39:20.603Z,101346.60
2023-02-22T22:41:48.337Z,101342.40
2023-02-22T22:44:21.618Z,101341.00
2023-02-22T22:46:52.868Z,101341.20
2023-02-22T22:49:19.951Z,101343.80
2023-02-22T22:51:46.900Z,101340.40
2023-02-22T22:54:13.996Z,101333.40
2023-02-22T22:56:40.764Z,101323.60
2023-02-22T22:59:09.874Z,101325.60
2023-02-22T23:01:43.692Z,101322.80
2023-02-22T23:04:15.710Z,101319.60
2023-02-22T23:06:46.162Z,101320.00
2023-02-22T23:09:21.640Z,101319.40
2023-02-22T23:12:17.079Z,101321.60
2023-02-22T23:14:52.490Z,101327.40
2023-02-22T23:17:30.494Z,101323.60
2023-02-22T23:19:57.173Z,101322.60
2023-02-22T23:22:23.608Z,101317.00
2023-02-22T23:24:52.088Z,101318.20
2023-02-22T23:27:19.599Z,101318.80
2023-02-22T23:29:52.422Z,101322.00
2023-02-22T23:32:19.280Z,101323.00
2023-02-22T23:34:49.066Z,101319.80
2023-02-22T23:37:18.609Z,101315.60
2023-02-22T23:39:45.014Z,101313.80
2023-02-22T23:42:16.080Z,101315.20
2023-02-22T23:44:45.424Z,101314.60
2023-02-22T23:47:11.931Z,101312.40
2023-02-22T23:49:42.749Z,101315.40
2023-02-22T23:52:09.299Z,101314.80
2023-02-22T23:54:39.605Z,101313.20
2023-02-22T23:57:08.196Z,101309.80
2023-02-22T23:59:35.423Z,101309.80
